INFORMACIÓN METAR y TAF
METAR FOR LPPR
ADDS - METARS form results

(2341 UTC 04 July 2020)
Data provider http://aviationweather.gov/metar/data/
 
METAR text: LPPR 042330Z 00000KT CAVOK 17/16 Q1020
Conditions at: LPPR (PORTO/PEDRAS RUB, PT) observed 2330 UTC 04 July 2020
Temperature: 17.0°C (63°F)
Dewpoint: 16.0°C (61°F) [RH = 94%]
Pressure (altimeter): 30.12 inches Hg (1020.0 mb)
Winds: calm
Visibility: 6 or more miles (10+ km)
Ceiling: ceiling and visibility are OK
Clouds: unknown
Weather: no significant weather observed at this time

METAR text: LPPR 042300Z 01004KT CAVOK 18/16 Q1020
Conditions at: LPPR (PORTO/PEDRAS RUB, PT) observed 2300 UTC 04 July 2020
Temperature: 18.0°C (64°F)
Dewpoint: 16.0°C (61°F) [RH = 88%]
Pressure (altimeter): 30.12 inches Hg (1020.0 mb)
Winds: from the N (10 degrees) at 5 MPH (4 knots; 2.1 m/s)
Visibility: 6 or more miles (10+ km)
Ceiling: ceiling and visibility are OK
Clouds: unknown
Weather: no significant weather observed at this time

Forecast for: LPPR (PORTO/PEDRAS RUB, PT)
Text: TAF LPPR 042300Z 0500/0524 VRB02KT CAVOK
Forecast period: 0000 to 0900 UTC 05 July 2020
Forecast type: FROM: standard forecast or significant change
Winds: variable direction winds at 2 MPH (2 knots; 1.0 m/s)
Visibility: 6 or more miles 10+ km)
Ceiling: unknown
Clouds: missing
Weather: NSW  (no significant weather)
Text: BECMG 0509/0511 31013KT
Forecast period: 0900 to 2100 UTC 05 July 2020
Forecast type: BECOMING: Conditions expected to become as follows by 1100 UTC 05 July 2020
Winds: from the NW (310 degrees) at 15 MPH (13 knots; 6.7 m/s)
Visibility: 6 or more miles 10+ km)
Ceiling: unknown
Clouds: missing
Weather: NSW  (no significant weather)
Text: BECMG 0521/0524 VRB02KT
Forecast period: 2100 UTC 05 July 2020 to 0000 UTC 06 July 2020
Forecast type: BECOMING: Conditions expected to become as follows by 0000 UTC 06 July 2020
Winds: variable direction winds at 2 MPH (2 knots; 1.0 m/s)
Visibility: 6 or more miles 10+ km)
Ceiling: unknown
Clouds: missing
Weather: NSW  (no significant weather)

 MAPA DE AEROPUERTO

 INFORMACIÓN DE PISTA
Pista 17 Longitud 11417 ft Ancho 148 ft
Elevación 151 ft Umbral desplazado 984 ft Rumbo de pista 169
Pista 35 Longitud 11417 ft Ancho 148 ft
Elevación 226 ft Umbral desplazado 492 ft Rumbo de pista 349

 FRECUANCIAS DEL AEROPUERTO
Tipo APP Nombre APP Frecuencia 121.1 MHZ
Tipo ATIS Nombre ATIS Frecuencia 124.3 MHZ
Tipo TWR Nombre TWR Frecuencia 118 MHZ

 RADIO AYUDAS DEL AEROPUERTO
Tipo NDB Nombre Porto Frecuencia 367 KHZ
Tipo NDB Nombre Porto Frecuencia 327 KHZ
Tipo VOR-DME Nombre Porto Frecuencia 114100 KHZ



Powered by Virtual Airlines Manager [v2.6.2]